createdAt,value
2017-11-22T00:00:58.540Z,6.80
2017-11-22T00:02:03.210Z,6.83
2017-11-22T00:03:07.862Z,6.75
2017-11-22T00:04:12.784Z,6.93
2017-11-22T00:05:17.435Z,6.96
2017-11-22T00:06:22.042Z,6.87
2017-11-22T00:07:26.658Z,6.79
2017-11-22T00:08:32.320Z,6.90
2017-11-22T00:09:36.919Z,6.89
2017-11-22T00:10:41.990Z,6.97
2017-11-22T00:11:46.617Z,6.92
2017-11-22T00:12:51.310Z,6.87
2017-11-22T00:13:55.894Z,6.76
2017-11-22T00:15:00.468Z,6.92
2017-11-22T00:16:05.065Z,6.93
2017-11-22T00:17:10.137Z,6.84
2017-11-22T00:18:14.730Z,6.94
2017-11-22T00:19:19.350Z,6.89
2017-11-22T00:20:23.944Z,6.89
2017-11-22T00:21:28.612Z,6.99
2017-11-22T00:22:33.240Z,6.96
2017-11-22T00:23:38.306Z,6.91
2017-11-22T00:24:42.953Z,7.05
2017-11-22T00:25:47.594Z,7.10
2017-11-22T00:26:52.214Z,6.91
2017-11-22T00:27:56.818Z,6.89
2017-11-22T00:29:01.406Z,6.81
2017-11-22T00:30:06.380Z,6.81
2017-11-22T00:31:11.024Z,6.84
2017-11-22T00:32:15.581Z,6.76
2017-11-22T00:33:20.559Z,6.93
2017-11-22T00:34:25.198Z,6.90
2017-11-22T00:35:29.821Z,6.99
2017-11-22T00:36:34.846Z,7.00
2017-11-22T00:37:39.610Z,6.89
2017-11-22T00:38:44.300Z,6.92
2017-11-22T00:39:48.903Z,6.79
2017-11-22T00:40:53.493Z,6.83
2017-11-22T00:41:58.082Z,6.80
2017-11-22T00:43:03.180Z,6.90
2017-11-22T00:44:07.774Z,6.87
2017-11-22T00:45:12.341Z,6.93
2017-11-22T00:46:16.962Z,6.86
2017-11-22T00:47:21.558Z,6.98
2017-11-22T00:48:26.198Z,6.96
2017-11-22T00:49:31.218Z,6.90
2017-11-22T00:50:35.815Z,6.93
2017-11-22T00:51:40.453Z,6.83
2017-11-22T00:52:45.008Z,6.85
2017-11-22T00:53:49.592Z,6.93
2017-11-22T00:54:54.230Z,7.03
2017-11-22T00:55:59.960Z,6.95
2017-11-22T00:57:04.630Z,7.06
2017-11-22T00:58:09.345Z,6.95
2017-11-22T00:59:13.952Z,6.90
2017-11-22T01:00:18.776Z,6.96
2017-11-22T01:01:23.433Z,7.09
2017-11-22T01:02:28.423Z,7.12
2017-11-22T01:03:33.019Z,7.02
2017-11-22T01:04:37.640Z,6.97
2017-11-22T01:05:42.260Z,6.90
2017-11-22T01:06:47.502Z,6.92
2017-11-22T01:07:52.098Z,7.01
2017-11-22T01:08:57.131Z,6.97
2017-11-22T01:10:01.799Z,6.95
2017-11-22T01:11:06.459Z,7.14
2017-11-22T01:12:11.141Z,7.02
2017-11-22T01:13:15.806Z,6.97
2017-11-22T01:14:20.406Z,6.98
2017-11-22T01:15:25.428Z,7.04
2017-11-22T01:16:30.039Z,6.93
2017-11-22T01:17:34.689Z,6.93
2017-11-22T01:18:40.342Z,7.04
2017-11-22T01:19:45.070Z,6.86
2017-11-22T01:20:49.768Z,6.90
2017-11-22T01:21:54.720Z,7.06
2017-11-22T01:22:59.349Z,7.01
2017-11-22T01:24:03.974Z,7.04
2017-11-22T01:25:08.617Z,6.98
2017-11-22T01:26:13.250Z,6.85
2017-11-22T01:27:17.921Z,7.00
2017-11-22T01:28:23.497Z,7.02
2017-11-22T01:29:28.098Z,6.97
2017-11-22T01:30:32.710Z,6.97
2017-11-22T01:31:37.281Z,7.00
2017-11-22T01:32:41.926Z,6.89
2017-11-22T01:33:46.482Z,7.00
2017-11-22T01:34:51.525Z,6.92
2017-11-22T01:35:56.090Z,6.93
2017-11-22T01:37:00.664Z,6.95
2017-11-22T01:38:05.232Z,7.02
2017-11-22T01:39:09.831Z,6.86
2017-11-22T01:40:14.429Z,6.97
2017-11-22T01:41:18.997Z,6.97
2017-11-22T01:42:23.615Z,6.91
2017-11-22T01:43:28.930Z,7.03
2017-11-22T01:44:33.480Z,6.89
2017-11-22T01:45:38.126Z,6.89
2017-11-22T01:46:42.717Z,6.89
2017-11-22T01:47:48.106Z,7.01
2017-11-22T01:48:52.639Z,6.96
2017-11-22T01:49:57.229Z,6.91
2017-11-22T01:51:02.071Z,7.04
2017-11-22T01:52:07.206Z,7.01
2017-11-22T01:53:11.707Z,7.00
2017-11-22T01:54:16.303Z,6.97
2017-11-22T01:55:20.820Z,7.07
2017-11-22T01:56:25.402Z,7.02
2017-11-22T01:57:30.038Z,6.95
2017-11-22T01:58:35.097Z,7.11
2017-11-22T01:59:39.689Z,7.08
2017-11-22T02:00:49.051Z,7.16
2017-11-22T02:01:53.642Z,6.97
2017-11-22T02:03:02.519Z,7.04
2017-11-22T02:04:07.596Z,6.96
2017-11-22T02:05:12.187Z,6.85
2017-11-22T02:06:16.947Z,6.86
2017-11-22T02:07:21.534Z,6.92
2017-11-22T02:08:26.226Z,6.90
2017-11-22T02:09:30.867Z,6.98
2017-11-22T02:10:35.839Z,7.04
2017-11-22T02:11:40.475Z,7.10
2017-11-22T02:12:45.050Z,7.13
2017-11-22T02:13:49.663Z,7.03
2017-11-22T02:14:54.118Z,7.05
2017-11-22T02:15:58.531Z,7.14
2017-11-22T02:17:03.360Z,7.16
2017-11-22T02:18:07.808Z,7.23
2017-11-22T02:19:12.242Z,7.28
2017-11-22T02:20:16.849Z,7.19
2017-11-22T02:21:21.508Z,7.13
2017-11-22T02:22:26.072Z,7.00
2017-11-22T02:23:31.199Z,7.15
2017-11-22T02:24:35.811Z,7.20
2017-11-22T02:25:40.418Z,7.14
2017-11-22T02:26:45.077Z,7.09
2017-11-22T02:27:49.560Z,7.13
2017-11-22T02:28:54.334Z,7.20
2017-11-22T02:29:59.172Z,7.16
2017-11-22T02:31:03.744Z,7.12
2017-11-22T02:32:08.284Z,7.13
2017-11-22T02:33:13.134Z,7.10
2017-11-22T02:34:17.760Z,7.09
2017-11-22T02:35:22.473Z,7.26
2017-11-22T02:36:27.547Z,7.28
2017-11-22T02:37:32.159Z,7.06
2017-11-22T02:38:36.750Z,7.31
2017-11-22T02:39:41.480Z,7.22
2017-11-22T02:40:46.135Z,7.28
2017-11-22T02:41:50.762Z,7.30
2017-11-22T02:42:55.701Z,7.41
2017-11-22T02:44:00.279Z,7.27
2017-11-22T02:45:04.952Z,7.22
2017-11-22T02:46:09.535Z,7.16
2017-11-22T02:47:14.145Z,7.12
2017-11-22T02:48:18.583Z,7.24
2017-11-22T02:49:23.632Z,7.32
2017-11-22T02:50:28.220Z,7.23
2017-11-22T02:51:33.569Z,7.23
2017-11-22T02:52:38.184Z,7.27
2017-11-22T02:53:42.867Z,7.28
2017-11-22T02:54:47.543Z,7.23
2017-11-22T02:55:52.784Z,7.34
2017-11-22T02:56:57.703Z,7.31
2017-11-22T02:58:02.360Z,7.31
2017-11-22T02:59:06.849Z,7.32
2017-11-22T03:00:11.586Z,7.35
2017-11-22T03:01:16.085Z,7.27
2017-11-22T03:02:20.992Z,7.37
2017-11-22T03:03:25.450Z,7.32
2017-11-22T03:04:29.899Z,7.41
2017-11-22T03:05:34.526Z,7.38
2017-11-22T03:06:39.185Z,7.39
2017-11-22T03:07:43.843Z,7.23
2017-11-22T03:08:48.756Z,7.25
2017-11-22T03:09:53.358Z,7.27
2017-11-22T03:10:57.931Z,7.35
2017-11-22T03:12:02.628Z,7.31
2017-11-22T03:13:07.274Z,7.46
2017-11-22T03:14:11.919Z,7.40
2017-11-22T03:15:16.866Z,7.24
2017-11-22T03:16:21.738Z,7.46
2017-11-22T03:17:26.377Z,7.38
2017-11-22T03:18:31.090Z,7.32
2017-11-22T03:19:35.743Z,7.53
2017-11-22T03:20:40.396Z,7.43
2017-11-22T03:21:45.398Z,7.44
2017-11-22T03:22:49.907Z,7.48
2017-11-22T03:23:54.366Z,7.41
2017-11-22T03:24:58.897Z,7.51
2017-11-22T03:26:03.363Z,7.56
2017-11-22T03:27:07.836Z,7.61
2017-11-22T03:28:12.742Z,7.50
2017-11-22T03:29:17.237Z,7.46
2017-11-22T03:30:21.763Z,7.48
2017-11-22T03:31:26.459Z,7.54
2017-11-22T03:32:31.072Z,7.47
2017-11-22T03:33:35.654Z,7.55
2017-11-22T03:34:40.835Z,7.56
2017-11-22T03:35:45.478Z,7.55
2017-11-22T03:36:50.056Z,7.46
2017-11-22T03:37:54.732Z,7.56
2017-11-22T03:38:59.342Z,7.54
2017-11-22T03:40:04.025Z,7.58
2017-11-22T03:41:09.303Z,7.61
2017-11-22T03:42:13.935Z,7.58
2017-11-22T03:43:18.529Z,7.45
2017-11-22T03:44:23.076Z,7.44
2017-11-22T03:45:27.728Z,7.40
2017-11-22T03:46:32.374Z,7.51
2017-11-22T03:47:37.591Z,7.38
2017-11-22T03:48:42.209Z,7.40
2017-11-22T03:49:51.722Z,7.58
2017-11-22T03:51:01.241Z,7.61
2017-11-22T03:52:10.910Z,7.67
2017-11-22T03:53:21.117Z,7.69
2017-11-22T03:54:25.723Z,7.61
2017-11-22T03:55:30.308Z,7.67
2017-11-22T03:56:34.921Z,7.62
2017-11-22T03:58:05.700Z,7.68
2017-11-22T03:59:10.631Z,7.59
2017-11-22T04:00:15.341Z,7.51
2017-11-22T04:01:24.831Z,7.50
2017-11-22T04:02:31.499Z,7.60
2017-11-22T04:03:38.964Z,7.75
2017-11-22T04:04:43.920Z,7.53
2017-11-22T04:05:53.490Z,7.59
2017-11-22T04:06:58.150Z,7.68
2017-11-22T04:08:03.060Z,7.61
2017-11-22T04:09:07.700Z,7.73
2017-11-22T04:10:12.403Z,7.65
2017-11-22T04:11:24.297Z,7.56
2017-11-22T04:12:29.270Z,7.57
2017-11-22T04:13:33.905Z,7.73
2017-11-22T04:14:38.576Z,7.85
2017-11-22T04:15:43.180Z,7.86
2017-11-22T04:16:47.812Z,7.80
2017-11-22T04:17:56.092Z,7.81
2017-11-22T04:19:05.789Z,7.81
2017-11-22T04:20:11.358Z,7.73
2017-11-22T04:21:15.999Z,7.70
2017-11-22T04:22:20.610Z,7.68
2017-11-22T04:23:25.275Z,7.60
2017-11-22T04:24:30.397Z,7.72
2017-11-22T04:25:35.007Z,7.58
2017-11-22T04:26:39.699Z,7.54
2017-11-22T04:27:44.385Z,7.58
2017-11-22T04:28:49.058Z,7.59
2017-11-22T04:29:53.738Z,7.74
2017-11-22T04:30:58.809Z,7.73
2017-11-22T04:32:06.401Z,7.70
2017-11-22T04:33:11.006Z,7.62
2017-11-22T04:34:15.689Z,7.72
2017-11-22T04:35:20.233Z,7.71
2017-11-22T04:36:24.735Z,7.62
2017-11-22T04:37:29.948Z,7.73
2017-11-22T04:38:34.430Z,7.60
2017-11-22T04:39:38.944Z,7.66
2017-11-22T04:40:43.452Z,7.71
2017-11-22T04:41:47.980Z,7.66
2017-11-22T04:42:52.492Z,7.72
2017-11-22T04:43:57.300Z,7.70
2017-11-22T04:45:02.739Z,7.79
2017-11-22T04:46:07.395Z,7.70
2017-11-22T04:47:12.150Z,7.76
2017-11-22T04:48:16.749Z,7.78
2017-11-22T04:49:21.484Z,7.84
2017-11-22T04:50:26.032Z,7.70
2017-11-22T04:51:30.563Z,7.73
2017-11-22T04:52:35.136Z,7.72
2017-11-22T04:53:39.749Z,7.71
2017-11-22T04:54:44.450Z,7.72
2017-11-22T04:55:49.059Z,7.78
2017-11-22T04:56:54.007Z,7.74
2017-11-22T04:57:58.698Z,7.80
2017-11-22T04:59:03.323Z,7.81
2017-11-22T05:00:07.946Z,7.90
2017-11-22T05:15:23.700Z,7.82
2017-11-22T05:16:28.351Z,7.90
2017-11-22T05:17:32.985Z,7.92
2017-11-22T05:18:38.233Z,7.97
2017-11-22T05:19:42.831Z,7.73
2017-11-22T05:20:47.829Z,7.69
2017-11-22T05:21:53.277Z,7.68
2017-11-22T05:22:57.925Z,7.71
2017-11-22T05:24:02.578Z,7.81
2017-11-22T05:25:07.220Z,7.76
2017-11-22T05:26:11.810Z,7.81
2017-11-22T05:27:16.860Z,7.80
2017-11-22T05:28:21.504Z,7.76
2017-11-22T05:29:26.119Z,7.77
2017-11-22T05:30:30.777Z,7.83
2017-11-22T05:31:35.407Z,7.88
2017-11-22T05:32:40.151Z,7.89
2017-11-22T05:33:45.202Z,7.95
2017-11-22T05:34:49.983Z,7.93
2017-11-22T05:35:54.563Z,7.83
2017-11-22T05:36:59.191Z,7.94
2017-11-22T05:38:03.824Z,7.90
2017-11-22T05:39:08.454Z,7.72
2017-11-22T05:40:13.588Z,7.94
2017-11-22T05:41:18.741Z,7.86
2017-11-22T05:42:23.354Z,7.83
2017-11-22T05:43:27.951Z,7.81
2017-11-22T05:44:32.548Z,7.84
2017-11-22T05:45:37.177Z,7.92
2017-11-22T05:46:42.335Z,7.93
2017-11-22T05:47:46.982Z,7.99
2017-11-22T05:48:51.604Z,7.99
2017-11-22T05:49:56.252Z,7.91
2017-11-22T05:51:01.146Z,7.82
2017-11-22T05:52:05.738Z,7.85
2017-11-22T05:53:10.792Z,7.97
2017-11-22T05:54:15.382Z,7.87
2017-11-22T05:55:20.143Z,7.83
2017-11-22T05:56:24.832Z,7.87
2017-11-22T05:57:29.550Z,8.05
2017-11-22T05:58:34.223Z,7.95
2017-11-22T05:59:40.290Z,7.97
2017-11-22T06:00:54.420Z,7.92
2017-11-22T06:01:59.050Z,7.89
2017-11-22T06:03:03.683Z,7.86
2017-11-22T06:04:08.410Z,7.89
2017-11-22T06:05:13.019Z,7.99
2017-11-22T06:06:18.000Z,7.99
2017-11-22T06:07:22.750Z,7.85
2017-11-22T06:08:27.375Z,7.87
2017-11-22T06:09:32.002Z,7.89
2017-11-22T06:10:36.919Z,7.91
2017-11-22T06:11:42.059Z,7.99
2017-11-22T06:12:47.900Z,7.91
2017-11-22T06:13:52.531Z,7.87
2017-11-22T06:14:57.228Z,7.88
2017-11-22T06:16:01.945Z,7.96
2017-11-22T06:17:06.565Z,7.93
2017-11-22T06:18:11.244Z,7.89
2017-11-22T06:19:16.241Z,7.85
2017-11-22T06:20:20.971Z,7.88
2017-11-22T06:21:25.691Z,7.94
2017-11-22T06:22:30.378Z,7.88
2017-11-22T06:23:35.012Z,8.08
2017-11-22T06:24:39.695Z,8.14
2017-11-22T06:25:44.845Z,7.87
2017-11-22T06:26:49.504Z,7.85
2017-11-22T06:27:54.238Z,7.90
2017-11-22T06:28:58.897Z,7.95
2017-11-22T06:30:38.031Z,7.93
2017-11-22T06:31:43.310Z,7.89
2017-11-22T06:32:47.994Z,8.03
2017-11-22T06:33:52.683Z,7.91
2017-11-22T06:34:57.374Z,7.92
2017-11-22T06:36:02.081Z,7.93
2017-11-22T06:37:07.687Z,7.82
2017-11-22T06:38:12.716Z,7.98
2017-11-22T06:39:17.398Z,7.93
2017-11-22T06:40:22.117Z,7.82
2017-11-22T06:41:26.860Z,7.80
2017-11-22T06:42:31.596Z,7.80
2017-11-22T06:43:36.171Z,7.90
2017-11-22T06:44:41.019Z,7.82
2017-11-22T06:45:45.712Z,7.87
2017-11-22T06:46:50.613Z,7.84
2017-11-22T06:47:55.322Z,7.83
2017-11-22T06:49:00.052Z,7.89
2017-11-22T06:50:04.894Z,7.75
2017-11-22T06:51:09.626Z,7.88
2017-11-22T06:52:14.300Z,7.84
2017-11-22T06:53:19.055Z,7.82
2017-11-22T06:54:23.784Z,7.77
2017-11-22T06:55:28.887Z,7.83
2017-11-22T06:56:34.200Z,7.81
2017-11-22T06:57:39.041Z,7.82
2017-11-22T06:58:43.927Z,7.89
2017-11-22T06:59:48.759Z,7.87
2017-11-22T07:00:53.640Z,7.75
2017-11-22T07:02:00.392Z,7.85
2017-11-22T07:03:10.920Z,7.79
2017-11-22T07:04:16.374Z,7.78
2017-11-22T07:05:21.100Z,7.73
2017-11-22T07:06:25.751Z,7.86
2017-11-22T07:07:30.554Z,7.82
2017-11-22T07:08:35.516Z,7.76
2017-11-22T07:09:40.828Z,7.69
2017-11-22T07:10:45.762Z,7.64
2017-11-22T07:11:50.771Z,7.72
2017-11-22T07:12:55.612Z,7.78
2017-11-22T07:14:00.435Z,7.70
2017-11-22T07:15:05.243Z,7.73
2017-11-22T07:16:10.752Z,7.90
2017-11-22T07:17:20.525Z,7.86
2017-11-22T07:18:25.365Z,7.81
2017-11-22T07:19:30.267Z,7.76
2017-11-22T07:20:34.965Z,7.79
2017-11-22T07:21:39.811Z,7.90
2017-11-22T07:22:45.042Z,7.86
2017-11-22T07:23:50.052Z,7.77
2017-11-22T07:24:54.875Z,7.76
2017-11-22T07:26:00.362Z,7.76
2017-11-22T07:27:05.229Z,7.83
2017-11-22T07:28:11.007Z,7.79
2017-11-22T07:29:16.404Z,7.84
2017-11-22T07:30:21.408Z,7.75
2017-11-22T07:31:26.258Z,7.74
2017-11-22T07:32:31.889Z,7.73
2017-11-22T07:33:36.689Z,7.69
2017-11-22T07:34:41.505Z,7.85
2017-11-22T07:35:51.754Z,7.73
2017-11-22T07:37:01.492Z,7.86
2017-11-22T07:38:06.410Z,7.84
2017-11-22T07:39:11.275Z,7.88
2017-11-22T07:40:16.079Z,7.81
2017-11-22T07:41:20.852Z,7.86
2017-11-22T07:42:26.089Z,7.86
2017-11-22T07:43:30.908Z,7.84
2017-11-22T07:44:35.749Z,7.72
2017-11-22T07:45:40.540Z,7.78
2017-11-22T07:46:46.398Z,7.76
2017-11-22T07:47:56.336Z,7.83
2017-11-22T07:49:01.306Z,7.72
2017-11-22T07:50:06.117Z,7.81
2017-11-22T07:51:15.841Z,7.93
2017-11-22T07:52:23.702Z,7.91
2017-11-22T07:53:28.527Z,7.90
2017-11-22T07:54:33.910Z,7.88
2017-11-22T07:55:38.553Z,7.91
2017-11-22T07:56:43.177Z,7.85
2017-11-22T07:57:50.856Z,7.89
2017-11-22T07:58:55.712Z,7.85
2017-11-22T08:00:00.607Z,7.86
2017-11-22T08:01:06.092Z,7.82
2017-11-22T08:02:11.268Z,7.89
2017-11-22T08:03:22.846Z,7.79
2017-11-22T08:04:28.688Z,7.86
2017-11-22T08:05:33.668Z,7.76
2017-11-22T08:06:38.490Z,7.75
2017-11-22T08:07:43.598Z,7.77
2017-11-22T08:08:48.396Z,7.77
2017-11-22T08:09:53.203Z,7.87
2017-11-22T08:10:58.076Z,7.95
2017-11-22T08:12:02.878Z,7.93
2017-11-22T08:13:08.851Z,7.87
2017-11-22T08:14:14.192Z,7.95
2017-11-22T08:15:18.871Z,7.95
2017-11-22T08:16:23.640Z,7.94
2017-11-22T08:17:28.514Z,7.87
2017-11-22T08:18:33.404Z,7.85
2017-11-22T08:19:38.251Z,7.82
2017-11-22T08:20:51.221Z,7.99
2017-11-22T08:21:56.380Z,7.96
2017-11-22T08:23:01.468Z,8.07
2017-11-22T08:24:06.310Z,7.97
2017-11-22T08:25:14.876Z,8.02
2017-11-22T08:26:19.620Z,8.03
2017-11-22T08:27:24.805Z,8.10
2017-11-22T08:28:30.593Z,8.03
2017-11-22T08:29:35.452Z,8.04
2017-11-22T08:30:43.372Z,8.11
2017-11-22T08:31:48.274Z,8.01
2017-11-22T08:32:53.050Z,8.06
2017-11-22T08:33:58.305Z,8.06
2017-11-22T08:35:03.196Z,8.01
2017-11-22T08:36:08.005Z,8.08
2017-11-22T08:37:12.688Z,8.05
2017-11-22T08:38:17.765Z,8.01
2017-11-22T08:39:22.664Z,8.03
2017-11-22T08:40:28.000Z,8.15
2017-11-22T08:41:37.689Z,8.19
2017-11-22T08:42:42.487Z,8.08
2017-11-22T08:43:51.287Z,8.01
2017-11-22T08:44:56.172Z,7.94
2017-11-22T08:46:01.129Z,8.13
2017-11-22T08:47:06.338Z,8.12
2017-11-22T08:48:11.210Z,8.16
2017-11-22T08:49:15.976Z,8.15
2017-11-22T08:50:20.650Z,8.23
2017-11-22T08:51:25.317Z,8.25
2017-11-22T08:52:30.100Z,8.28
2017-11-22T08:53:35.200Z,8.13
2017-11-22T08:54:44.932Z,8.32
2017-11-22T08:55:54.796Z,8.28
2017-11-22T08:57:04.774Z,8.19
2017-11-22T08:58:14.406Z,8.26
2017-11-22T08:59:19.283Z,8.22
2017-11-22T09:00:24.607Z,8.23
2017-11-22T09:01:29.735Z,8.32
2017-11-22T09:02:34.597Z,8.36
2017-11-22T09:03:44.366Z,8.34
2017-11-22T09:04:49.254Z,8.34
2017-11-22T09:13:46.342Z,8.40
2017-11-22T09:14:51.317Z,8.33
2017-11-22T09:15:56.175Z,8.35
2017-11-22T09:17:01.100Z,8.39
2017-11-22T09:18:12.714Z,8.28
2017-11-22T09:19:17.639Z,8.34
2017-11-22T09:20:22.879Z,8.26
2017-11-22T09:21:27.758Z,8.20
2017-11-22T09:22:32.707Z,8.22
2017-11-22T09:23:37.497Z,8.32
2017-11-22T09:24:47.095Z,8.27
2017-11-22T09:25:51.857Z,8.26
2017-11-22T09:28:13.199Z,8.35
2017-11-22T09:29:17.919Z,8.48
2017-11-22T09:30:22.701Z,8.25
2017-11-22T09:31:32.319Z,8.31
2017-11-22T09:32:41.376Z,8.39
2017-11-22T09:33:46.549Z,8.21
2017-11-22T09:34:56.364Z,8.25
2017-11-22T09:36:01.180Z,8.44
2017-11-22T09:37:06.082Z,8.27
2017-11-22T09:38:11.273Z,8.29
2017-11-22T09:39:16.019Z,8.48
2017-11-22T09:40:21.078Z,8.40
2017-11-22T09:41:25.874Z,8.48
2017-11-22T09:42:30.619Z,8.58
2017-11-22T09:43:35.419Z,8.56
2017-11-22T09:44:40.188Z,8.66
2017-11-22T09:45:45.250Z,8.79
2017-11-22T09:46:50.553Z,8.85
2017-11-22T09:47:55.355Z,8.62
2017-11-22T09:49:00.819Z,8.63
2017-11-22T09:50:05.856Z,8.59
2017-11-22T09:51:10.566Z,8.74
2017-11-22T09:52:15.297Z,8.70
2017-11-22T09:53:20.605Z,8.76
2017-11-22T09:54:25.298Z,8.81
2017-11-22T09:55:30.110Z,8.97
2017-11-22T09:56:34.989Z,9.00
2017-11-22T09:57:39.807Z,8.84
2017-11-22T09:58:44.641Z,9.12
2017-11-22T09:59:49.840Z,9.10
2017-11-22T10:00:54.875Z,9.15
2017-11-22T10:01:59.671Z,9.01
2017-11-22T10:03:04.563Z,8.91
2017-11-22T10:04:09.318Z,9.07
2017-11-22T10:05:14.132Z,9.07
2017-11-22T10:06:19.420Z,9.02
2017-11-22T10:07:24.015Z,8.79
2017-11-22T10:08:28.797Z,9.16
2017-11-22T10:09:33.527Z,9.12
2017-11-22T10:10:38.306Z,9.08
2017-11-22T10:11:43.156Z,9.60
2017-11-22T10:12:48.304Z,9.42
2017-11-22T10:13:53.057Z,8.89
2017-11-22T10:14:57.694Z,9.42
2017-11-22T10:16:02.359Z,9.63
2017-11-22T10:17:11.149Z,10.08
2017-11-22T10:18:19.872Z,10.22
2017-11-22T10:19:24.739Z,10.92
2017-11-22T10:20:29.608Z,10.86
2017-11-22T10:21:39.229Z,10.38
2017-11-22T10:22:46.120Z,10.78
2017-11-22T10:23:51.520Z,11.05
2017-11-22T10:25:00.373Z,11.75
2017-11-22T10:26:05.256Z,11.33
2017-11-22T10:27:14.088Z,10.77
2017-11-22T10:28:19.072Z,9.83
2017-11-22T10:29:24.577Z,9.84
2017-11-22T10:30:30.518Z,11.18
2017-11-22T10:31:39.295Z,10.79
2017-11-22T10:32:48.053Z,10.31
2017-11-22T10:33:52.960Z,10.13
2017-11-22T10:34:57.708Z,10.65
2017-11-22T10:36:02.887Z,9.91
2017-11-22T10:37:08.712Z,9.87
2017-11-22T10:38:14.271Z,10.42
2017-11-22T10:39:19.070Z,10.38
2017-11-22T10:40:23.876Z,10.01
2017-11-22T10:41:28.863Z,10.38
2017-11-22T10:42:33.948Z,10.64
2017-11-22T10:43:38.715Z,11.16
2017-11-22T10:44:43.476Z,10.78
2017-11-22T10:45:48.295Z,10.09
2017-11-22T10:46:52.966Z,10.25
2017-11-22T10:47:57.698Z,11.11
2017-11-22T10:49:03.620Z,10.63
2017-11-22T10:50:10.764Z,11.00
2017-11-22T10:51:15.557Z,11.46
2017-11-22T10:52:20.369Z,10.97
2017-11-22T10:53:25.275Z,10.95
2017-11-22T10:54:30.556Z,11.40
2017-11-22T10:55:35.766Z,11.01
2017-11-22T10:56:40.720Z,10.50
2017-11-22T10:57:45.563Z,11.21
2017-11-22T10:58:50.488Z,10.71
2017-11-22T11:15:39.658Z,11.09
2017-11-22T11:16:44.525Z,11.10
2017-11-22T11:17:49.343Z,11.44
2017-11-22T11:18:54.135Z,11.58
2017-11-22T11:19:58.877Z,11.88
2017-11-22T11:21:04.325Z,11.87
2017-11-22T11:22:09.093Z,12.08
2017-11-22T11:23:13.906Z,12.11
2017-11-22T11:24:18.743Z,12.58
2017-11-22T11:25:23.483Z,12.39
2017-11-22T11:26:28.202Z,11.98
2017-11-22T11:27:33.410Z,11.68
2017-11-22T11:28:38.551Z,11.56
2017-11-22T11:29:43.550Z,11.59
2017-11-22T11:30:48.361Z,11.55
2017-11-22T11:31:53.158Z,11.53
2017-11-22T11:32:57.919Z,11.29
2017-11-22T11:34:03.276Z,11.43
2017-11-22T11:35:08.122Z,11.57
2017-11-22T11:36:47.198Z,11.30
2017-11-22T11:37:52.128Z,11.10
2017-11-22T11:38:56.969Z,11.05
2017-11-22T11:40:02.270Z,11.29
2017-11-22T11:41:07.485Z,11.01
2017-11-22T11:42:13.303Z,10.50
2017-11-22T11:43:18.130Z,10.42
2017-11-22T11:44:22.965Z,10.28
2017-11-22T11:45:27.676Z,10.78
2017-11-22T11:46:32.714Z,11.16
2017-11-22T11:47:38.018Z,11.07
2017-11-22T11:48:42.894Z,10.68
2017-11-22T11:49:47.757Z,11.08
2017-11-22T11:50:52.548Z,10.96
2017-11-22T11:51:57.545Z,11.39
2017-11-22T11:53:02.527Z,11.18
2017-11-22T11:54:07.776Z,11.47
2017-11-22T11:55:12.687Z,11.46
2017-11-22T11:56:17.675Z,11.55
2017-11-22T11:57:22.521Z,11.93
2017-11-22T11:58:27.359Z,11.67
2017-11-22T11:59:32.226Z,11.69
2017-11-22T12:00:38.028Z,11.91
2017-11-22T12:01:42.937Z,12.04
2017-11-22T12:02:47.868Z,12.78
2017-11-22T12:03:52.717Z,12.17
2017-11-22T12:04:57.618Z,12.26
2017-11-22T12:06:02.445Z,12.39
2017-11-22T12:07:07.714Z,12.77
2017-11-22T12:08:14.314Z,12.66
2017-11-22T12:09:19.320Z,13.06
2017-11-22T12:10:24.273Z,13.20
2017-11-22T12:11:29.277Z,13.50
2017-11-22T12:12:34.035Z,14.02
2017-11-22T12:13:39.351Z,13.65
2017-11-22T12:14:45.272Z,13.35
2017-11-22T12:15:50.075Z,13.12
2017-11-22T12:16:54.843Z,12.99
2017-11-22T12:18:02.769Z,13.68
2017-11-22T12:19:07.720Z,13.04
2017-11-22T12:20:13.059Z,12.66
2017-11-22T12:21:17.951Z,12.87
2017-11-22T12:22:27.596Z,12.30
2017-11-22T12:23:43.445Z,12.34
2017-11-22T12:24:48.269Z,13.50
2017-11-22T12:25:53.107Z,14.51
2017-11-22T12:26:58.337Z,14.13
2017-11-22T12:29:24.742Z,13.89
2017-11-22T12:30:29.489Z,14.25
2017-11-22T12:31:34.378Z,14.34
2017-11-22T12:32:39.102Z,14.37
2017-11-22T12:33:44.764Z,14.27
2017-11-22T12:34:49.598Z,13.71
2017-11-22T12:35:54.599Z,13.12
2017-11-22T12:36:59.473Z,13.44
2017-11-22T12:38:04.352Z,13.91
2017-11-22T12:39:09.107Z,13.13
2017-11-22T12:40:15.535Z,13.45
2017-11-22T12:41:20.406Z,13.36
2017-11-22T12:42:25.287Z,13.37
2017-11-22T12:43:31.138Z,13.08
2017-11-22T12:44:39.490Z,13.30
2017-11-22T12:45:44.615Z,13.32
2017-11-22T12:46:49.365Z,13.05
2017-11-22T12:47:54.236Z,13.05
2017-11-22T12:48:58.988Z,13.98
2017-11-22T12:50:03.845Z,12.88
2017-11-22T12:51:08.726Z,12.47
2017-11-22T12:52:14.392Z,13.03
2017-11-22T12:53:19.320Z,13.17
2017-11-22T12:54:24.327Z,13.01
2017-11-22T12:55:29.257Z,12.48
2017-11-22T12:56:34.111Z,12.03
2017-11-22T12:57:54.576Z,12.02
2017-11-22T12:58:59.403Z,12.04
2017-11-22T13:00:04.222Z,11.80
2017-11-22T13:01:09.076Z,11.98
2017-11-22T13:02:13.903Z,11.99
2017-11-22T13:03:18.766Z,12.11
2017-11-22T13:04:24.012Z,12.10
2017-11-22T13:05:28.897Z,12.42
2017-11-22T13:06:33.748Z,12.58
2017-11-22T13:07:38.877Z,12.60
2017-11-22T13:08:43.682Z,12.34
2017-11-22T13:09:48.417Z,12.97
2017-11-22T13:10:58.492Z,12.88
2017-11-22T13:12:03.378Z,12.78
2017-11-22T13:13:09.013Z,12.69
2017-11-22T13:14:15.745Z,13.30
2017-11-22T13:15:20.488Z,13.04
2017-11-22T13:16:25.292Z,12.51
2017-11-22T13:17:30.835Z,12.72
2017-11-22T13:18:35.763Z,12.65
2017-11-22T13:19:41.046Z,12.57
2017-11-22T13:20:45.815Z,12.74
2017-11-22T13:21:50.635Z,12.70
2017-11-22T13:22:55.414Z,12.77
2017-11-22T13:24:01.575Z,12.88
2017-11-22T13:25:06.352Z,12.90
2017-11-22T13:26:11.199Z,12.87
2017-11-22T13:27:21.754Z,12.82
2017-11-22T13:28:26.648Z,12.91
2017-11-22T13:29:31.597Z,12.28
2017-11-22T13:30:36.749Z,12.53
2017-11-22T13:31:41.565Z,12.45
2017-11-22T13:32:46.504Z,12.94
2017-11-22T13:33:51.350Z,13.13
2017-11-22T13:34:56.214Z,13.11
2017-11-22T13:36:01.179Z,13.07
2017-11-22T13:37:06.205Z,12.96
2017-11-22T13:38:11.452Z,12.96
2017-11-22T13:39:16.464Z,12.69
2017-11-22T13:40:21.366Z,12.53
2017-11-22T13:41:31.337Z,12.34
2017-11-22T13:42:36.244Z,12.38
2017-11-22T13:43:41.605Z,12.49
2017-11-22T13:44:46.467Z,12.49
2017-11-22T13:45:51.380Z,12.37
2017-11-22T13:46:56.278Z,12.37
2017-11-22T13:48:01.126Z,11.94
2017-11-22T13:49:06.027Z,11.99
2017-11-22T13:50:11.226Z,12.01
2017-11-22T13:51:16.213Z,11.82
2017-11-22T13:52:21.120Z,11.73
2017-11-22T13:53:26.553Z,11.92
2017-11-22T13:54:31.924Z,11.74
2017-11-22T13:55:36.875Z,11.77
2017-11-22T13:56:42.207Z,11.92
2017-11-22T13:57:48.876Z,11.62
2017-11-22T13:58:55.014Z,11.60
2017-11-22T14:00:00.482Z,11.85
2017-11-22T14:01:05.556Z,12.02
2017-11-22T14:02:10.620Z,11.87
2017-11-22T14:03:17.255Z,11.93
2017-11-22T14:04:23.396Z,11.85
2017-11-22T14:05:28.984Z,11.78
2017-11-22T14:06:34.437Z,11.84
2017-11-22T14:07:40.197Z,11.88
2017-11-22T14:08:45.793Z,11.78
2017-11-22T14:09:51.253Z,11.63
2017-11-22T14:10:56.037Z,11.54
2017-11-22T14:12:00.971Z,11.92
2017-11-22T14:13:05.934Z,11.69
2017-11-22T14:14:10.929Z,11.60
2017-11-22T14:15:19.777Z,11.73
2017-11-22T14:16:27.477Z,11.32
2017-11-22T14:17:33.271Z,11.64
2017-11-22T14:18:38.816Z,11.52
2017-11-22T14:19:44.918Z,11.47
2017-11-22T14:20:51.468Z,11.57
2017-11-22T14:21:58.511Z,11.94
2017-11-22T14:23:04.231Z,11.87
2017-11-22T14:24:10.977Z,11.78
2017-11-22T14:25:16.048Z,11.88
2017-11-22T14:26:23.140Z,11.64
2017-11-22T14:27:28.565Z,11.46
2017-11-22T14:28:33.529Z,11.84
2017-11-22T14:29:39.204Z,12.07
2017-11-22T14:30:45.680Z,11.92
2017-11-22T14:31:52.260Z,11.72
2017-11-22T14:32:57.287Z,12.13
2017-11-22T14:34:02.576Z,12.21
2017-11-22T14:35:11.041Z,11.85
2017-11-22T14:36:16.813Z,11.79
2017-11-22T14:37:22.259Z,11.74
2017-11-22T14:38:27.018Z,11.56
2017-11-22T14:39:31.972Z,11.67
2017-11-22T14:40:36.679Z,11.59
2017-11-22T14:41:41.597Z,11.57
2017-11-22T14:42:46.829Z,11.47
2017-11-22T14:43:51.877Z,11.70
2017-11-22T14:44:58.164Z,11.48
2017-11-22T14:46:04.378Z,11.46
2017-11-22T14:47:09.982Z,11.71
2017-11-22T14:48:14.915Z,11.55
2017-11-22T14:49:20.474Z,11.53
2017-11-22T14:50:25.405Z,11.21
2017-11-22T14:51:31.492Z,11.17
2017-11-22T14:52:36.446Z,11.30
2017-11-22T14:53:41.383Z,11.25
2017-11-22T14:54:46.443Z,11.41
2017-11-22T14:55:53.052Z,11.32
2017-11-22T14:56:58.862Z,11.50
2017-11-22T14:58:05.256Z,11.52
2017-11-22T14:59:11.452Z,11.25
2017-11-22T15:00:18.116Z,11.15
2017-11-22T15:01:23.475Z,11.43
2017-11-22T15:02:31.085Z,11.67